createdAt,value
2024-02-04T00:01:36.720Z,9.50
2024-02-04T00:04:04.769Z,8.90
2024-02-04T00:06:32.950Z,11.00
2024-02-04T00:09:00.771Z,10.30
2024-02-04T00:11:28.711Z,9.80
2024-02-04T00:13:56.429Z,8.50
2024-02-04T00:16:24.128Z,8.60
2024-02-04T00:18:52.170Z,8.80
2024-02-04T00:21:19.946Z,9.80
2024-02-04T00:23:47.716Z,9.60
2024-02-04T00:26:16.084Z,9.20
2024-02-04T00:28:44.633Z,9.20
2024-02-04T00:31:12.450Z,9.20
2024-02-04T00:33:40.268Z,10.70
2024-02-04T00:36:08.188Z,10.00
2024-02-04T00:38:36.025Z,10.10
2024-02-04T00:41:04.681Z,9.50
2024-02-04T00:43:32.262Z,9.20
2024-02-04T00:46:01.587Z,9.20
2024-02-04T00:48:29.514Z,10.10
2024-02-04T00:50:57.404Z,9.70
2024-02-04T00:53:25.128Z,8.80
2024-02-04T00:55:53.487Z,9.30
2024-02-04T00:58:21.320Z,9.60
2024-02-04T01:00:50.997Z,10.50
2024-02-04T01:03:20.230Z,10.50
2024-02-04T01:05:48.154Z,9.80
2024-02-04T01:08:15.829Z,9.30
2024-02-04T01:10:44.230Z,9.60
2024-02-04T01:13:11.903Z,9.90
2024-02-04T01:15:39.635Z,10.80
2024-02-04T01:18:08.630Z,9.00
2024-02-04T01:20:36.376Z,8.60
2024-02-04T01:23:04.726Z,8.60
2024-02-04T01:25:32.408Z,8.30
2024-02-04T01:28:00.114Z,8.30
2024-02-04T01:30:28.513Z,8.90
2024-02-04T01:32:56.389Z,9.30
2024-02-04T01:35:24.120Z,8.00
2024-02-04T01:37:51.838Z,7.30
2024-02-04T01:40:20.240Z,8.30
2024-02-04T01:42:47.909Z,8.70
2024-02-04T01:45:15.930Z,7.60
2024-02-04T01:47:44.254Z,7.60
2024-02-04T01:50:12.875Z,8.10
2024-02-04T01:52:40.968Z,8.00
2024-02-04T01:55:08.959Z,7.10
2024-02-04T01:57:37.317Z,7.60
2024-02-04T02:00:05.844Z,7.70
2024-02-04T02:02:35.026Z,7.30
2024-02-04T02:05:02.794Z,6.30
2024-02-04T02:07:31.318Z,6.70
2024-02-04T02:09:59.788Z,5.80
2024-02-04T02:12:28.567Z,6.30
2024-02-04T02:14:58.408Z,6.50
2024-02-04T02:17:26.497Z,5.50
2024-02-04T02:20:05.449Z,6.70
2024-02-04T02:22:39.380Z,5.50
2024-02-04T02:25:07.948Z,5.10
2024-02-04T02:27:36.339Z,5.70
2024-02-04T02:30:04.949Z,4.80
2024-02-04T02:32:32.857Z,5.30
2024-02-04T02:35:00.681Z,5.30
2024-02-04T02:37:31.102Z,6.20
2024-02-04T02:40:02.607Z,6.00
2024-02-04T02:42:30.859Z,5.90
2024-02-04T02:44:58.546Z,5.20
2024-02-04T02:47:26.447Z,5.70
2024-02-04T02:50:03.261Z,6.30
2024-02-04T02:52:31.093Z,6.40
2024-02-04T02:55:05.833Z,7.50
2024-02-04T02:57:33.873Z,6.50
2024-02-04T03:00:01.594Z,7.50
2024-02-04T03:02:29.239Z,6.70
2024-02-04T03:04:56.936Z,7.10
2024-02-04T03:07:25.206Z,8.40
2024-02-04T03:09:54.155Z,8.00
2024-02-04T03:12:21.753Z,7.50
2024-02-04T03:14:49.605Z,7.50
2024-02-04T03:17:22.352Z,7.70
2024-02-04T03:19:53.294Z,8.20
2024-02-04T03:25:08.972Z,8.20
2024-02-04T03:27:36.631Z,7.50
2024-02-04T03:30:05.031Z,7.40
2024-02-04T03:32:34.450Z,7.20
2024-02-04T03:35:02.794Z,6.70
2024-02-04T03:37:30.272Z,6.80
2024-02-04T03:39:58.558Z,7.10
2024-02-04T03:42:26.350Z,7.20
2024-02-04T03:44:54.165Z,8.20
2024-02-04T03:47:21.218Z,8.70
2024-02-04T03:49:49.109Z,8.40
2024-02-04T03:52:16.140Z,7.30
2024-02-04T03:54:43.485Z,7.30
2024-02-04T03:57:10.672Z,5.90
2024-02-04T03:59:37.974Z,5.50
2024-02-04T04:02:05.150Z,5.90
2024-02-04T04:04:32.606Z,5.30
2024-02-04T04:07:00.264Z,5.40
2024-02-04T04:09:27.450Z,5.10
2024-02-04T04:11:54.715Z,6.20
2024-02-04T04:14:21.832Z,5.90
2024-02-04T04:16:49.327Z,5.50
2024-02-04T04:19:16.611Z,5.60
2024-02-04T04:21:45.298Z,5.40
2024-02-04T04:24:12.500Z,5.00
2024-02-04T04:26:39.577Z,5.70
2024-02-04T04:29:06.564Z,6.10
2024-02-04T04:31:33.480Z,6.50
2024-02-04T04:34:00.797Z,6.30
2024-02-04T04:36:27.957Z,6.80
2024-02-04T04:38:55.342Z,7.10
2024-02-04T04:41:22.406Z,6.70
2024-02-04T04:43:50.022Z,6.70
2024-02-04T04:46:17.186Z,7.50
2024-02-04T04:48:44.753Z,7.20
2024-02-04T04:51:12.504Z,7.30
2024-02-04T04:53:39.507Z,7.50
2024-02-04T04:56:07.122Z,7.50
2024-02-04T04:58:35.897Z,9.20
2024-02-04T05:01:03.041Z,8.80
2024-02-04T05:03:30.376Z,8.00
2024-02-04T05:05:57.681Z,8.10
2024-02-04T05:08:24.682Z,8.10
2024-02-04T05:10:51.827Z,7.60
2024-02-04T05:13:18.703Z,10.10
2024-02-04T05:15:45.760Z,11.10
2024-02-04T05:18:12.812Z,10.10
2024-02-04T05:20:40.298Z,7.30
2024-02-04T05:23:07.394Z,6.10
2024-02-04T05:25:35.201Z,6.50
2024-02-04T05:28:02.315Z,7.30
2024-02-04T05:30:29.775Z,7.80
2024-02-04T05:32:57.000Z,7.20
2024-02-04T05:35:24.196Z,7.30
2024-02-04T05:37:51.467Z,6.40
2024-02-04T05:40:19.994Z,7.00
2024-02-04T05:42:47.513Z,6.00
2024-02-04T05:45:14.814Z,6.30
2024-02-04T05:47:42.114Z,5.50
2024-02-04T05:50:09.643Z,5.70
2024-02-04T05:52:37.058Z,4.70
2024-02-04T05:55:05.709Z,5.50
2024-02-04T05:57:32.979Z,5.40
2024-02-04T06:00:00.182Z,5.20
2024-02-04T06:02:27.292Z,5.60
2024-02-04T06:04:55.972Z,5.90
2024-02-04T06:07:23.254Z,6.90
2024-02-04T06:09:50.712Z,6.30
2024-02-04T06:12:17.906Z,7.20
2024-02-04T06:14:45.178Z,6.30
2024-02-04T06:17:12.382Z,6.40
2024-02-04T06:19:39.652Z,7.50
2024-02-04T06:22:07.011Z,7.10
2024-02-04T06:24:34.221Z,7.60
2024-02-04T06:27:01.428Z,6.60
2024-02-04T06:29:28.762Z,6.00
2024-02-04T06:31:55.863Z,7.00
2024-02-04T06:34:23.202Z,6.80
2024-02-04T06:36:50.614Z,7.00
2024-02-04T06:39:17.725Z,9.20
2024-02-04T06:41:44.867Z,8.80
2024-02-04T06:44:12.475Z,10.90
2024-02-04T06:46:39.615Z,10.30
2024-02-04T06:49:07.656Z,8.90
2024-02-04T06:51:35.558Z,10.80
2024-02-04T06:54:03.229Z,11.80
2024-02-04T06:56:30.333Z,11.40
2024-02-04T06:58:57.331Z,9.80
2024-02-04T07:01:24.674Z,8.60
2024-02-04T07:03:52.127Z,7.20
2024-02-04T07:06:19.336Z,6.70
2024-02-04T07:08:46.506Z,6.30
2024-02-04T07:11:13.690Z,6.30
2024-02-04T07:13:40.898Z,5.60
2024-02-04T07:16:08.108Z,7.00
2024-02-04T07:18:35.616Z,7.50
2024-02-04T07:21:02.758Z,8.80
2024-02-04T07:23:30.187Z,9.00
2024-02-04T07:25:57.366Z,7.70
2024-02-04T07:28:24.457Z,7.00
2024-02-04T07:30:51.628Z,7.30
2024-02-04T07:33:19.145Z,8.50
2024-02-04T07:35:46.303Z,9.30
2024-02-04T07:38:14.096Z,11.40
2024-02-04T07:40:41.297Z,10.50
2024-02-04T07:43:08.553Z,9.30
2024-02-04T07:45:35.750Z,7.60
2024-02-04T07:48:04.335Z,5.50
2024-02-04T07:50:33.423Z,5.40
2024-02-04T07:53:00.999Z,5.70
2024-02-04T07:55:28.680Z,6.00
2024-02-04T07:57:56.257Z,6.50
2024-02-04T08:00:23.507Z,6.90
2024-02-04T08:02:50.590Z,6.70
2024-02-04T08:05:18.179Z,5.20
2024-02-04T08:07:45.875Z,5.00
2024-02-04T08:10:13.087Z,4.60
2024-02-04T08:12:40.323Z,5.10
2024-02-04T08:15:07.819Z,6.00
2024-02-04T08:17:35.042Z,7.60
2024-02-04T08:20:04.630Z,7.30
2024-02-04T08:22:31.995Z,6.50
2024-02-04T08:24:59.177Z,5.50
2024-02-04T08:27:26.172Z,5.50
2024-02-04T08:29:53.497Z,4.90
2024-02-04T08:32:20.621Z,4.80
2024-02-04T08:34:48.043Z,5.70
2024-02-04T08:37:15.391Z,5.20
2024-02-04T08:39:42.576Z,6.20
2024-02-04T08:42:09.784Z,7.10
2024-02-04T08:44:39.846Z,7.70
2024-02-04T08:47:10.867Z,7.10
2024-02-04T08:49:37.959Z,8.10
2024-02-04T08:52:05.288Z,7.60
2024-02-04T08:54:32.843Z,8.80
2024-02-04T08:56:59.904Z,8.70
2024-02-04T08:59:27.065Z,11.20
2024-02-04T09:01:54.309Z,10.00
2024-02-04T09:04:21.456Z,7.50
2024-02-04T09:06:48.777Z,7.90
2024-02-04T09:09:16.143Z,5.70
2024-02-04T09:11:43.317Z,6.10
2024-02-04T09:14:10.525Z,6.30
2024-02-04T09:16:41.031Z,5.60
2024-02-04T09:19:08.773Z,5.90
2024-02-04T09:21:36.195Z,3.80
2024-02-04T09:24:03.479Z,3.40
2024-02-04T09:26:31.236Z,3.40
2024-02-04T09:28:58.741Z,2.70
2024-02-04T09:31:26.038Z,1.90
2024-02-04T09:33:53.710Z,2.20
2024-02-04T09:36:23.159Z,2.40
2024-02-04T09:38:50.423Z,2.30
2024-02-04T09:41:17.671Z,1.80
2024-02-04T09:43:44.978Z,2.10
2024-02-04T09:46:12.890Z,1.50
2024-02-04T09:48:40.517Z,1.90
2024-02-04T09:51:10.736Z,2.00
2024-02-04T09:53:40.402Z,1.50
2024-02-04T09:56:09.015Z,1.70
2024-02-04T09:58:36.339Z,2.10
2024-02-04T10:01:06.125Z,2.50
2024-02-04T10:03:34.260Z,2.00
2024-02-04T10:06:01.541Z,2.20
2024-02-04T10:08:31.223Z,2.00
2024-02-04T10:10:59.647Z,1.80
2024-02-04T10:13:26.928Z,2.30
2024-02-04T10:15:54.047Z,2.30
2024-02-04T10:18:22.301Z,2.10
2024-02-04T10:20:49.289Z,2.10
2024-02-04T10:23:16.415Z,1.70
2024-02-04T10:25:43.471Z,1.80
2024-02-04T10:28:10.568Z,1.60
2024-02-04T10:30:38.892Z,1.50
2024-02-04T10:33:06.406Z,1.70
2024-02-04T10:35:33.486Z,1.80
2024-02-04T10:38:00.680Z,1.60
2024-02-04T10:40:27.905Z,1.60
2024-02-04T10:42:56.327Z,1.80
2024-02-04T10:45:23.449Z,2.00
2024-02-04T10:47:53.327Z,1.40
2024-02-04T10:50:20.507Z,1.60
2024-02-04T10:52:47.647Z,1.70
2024-02-04T10:55:14.765Z,2.00
2024-02-04T10:57:42.565Z,1.80
2024-02-04T11:00:12.440Z,1.60
2024-02-04T11:02:39.675Z,1.70
2024-02-04T11:05:06.914Z,1.50
2024-02-04T11:07:36.804Z,1.70
2024-02-04T11:10:04.740Z,1.80
2024-02-04T11:12:32.408Z,1.70
2024-02-04T11:15:01.182Z,2.40
2024-02-04T11:17:36.389Z,2.30
2024-02-04T11:20:08.169Z,2.90
2024-02-04T11:22:54.332Z,3.60
2024-02-04T11:25:22.120Z,4.30
2024-02-04T11:27:49.378Z,2.70
2024-02-04T11:30:16.704Z,2.10
2024-02-04T11:32:44.392Z,2.20
2024-02-04T11:35:14.487Z,1.70
2024-02-04T11:37:46.731Z,1.60
2024-02-04T11:40:17.586Z,1.70
2024-02-04T11:42:45.440Z,2.80
2024-02-04T11:45:13.892Z,4.00
2024-02-04T11:47:41.348Z,4.20
2024-02-04T11:50:09.942Z,5.50
2024-02-04T11:52:37.225Z,4.60
2024-02-04T11:55:06.283Z,3.20
2024-02-04T11:57:33.785Z,3.00
2024-02-04T12:00:02.395Z,1.80
2024-02-04T12:02:31.504Z,2.10
2024-02-04T12:04:58.675Z,2.20
2024-02-04T12:07:25.923Z,2.60
2024-02-04T12:09:53.901Z,2.50
2024-02-04T12:12:21.028Z,2.50
2024-02-04T12:14:48.027Z,1.70
2024-02-04T12:17:15.603Z,2.50
2024-02-04T12:19:44.791Z,1.40
2024-02-04T12:22:12.417Z,1.90
2024-02-04T12:24:39.713Z,1.60
2024-02-04T12:27:08.130Z,1.40
2024-02-04T12:29:35.197Z,1.80
2024-02-04T12:32:03.558Z,1.60
2024-02-04T12:34:30.821Z,1.30
2024-02-04T12:36:58.309Z,1.90
2024-02-04T12:39:25.554Z,1.90
2024-02-04T12:41:53.156Z,1.50
2024-02-04T12:44:20.288Z,2.30
2024-02-04T12:46:50.900Z,2.90
2024-02-04T12:49:24.832Z,4.80
2024-02-04T12:51:57.319Z,4.60
2024-02-04T12:54:24.666Z,4.30
2024-02-04T12:56:52.364Z,3.50
2024-02-04T12:59:29.470Z,2.90
2024-02-04T13:01:58.033Z,3.50
2024-02-04T13:04:25.598Z,3.80
2024-02-04T13:06:53.797Z,3.20
2024-02-04T13:09:21.758Z,3.30
2024-02-04T13:11:48.813Z,3.30
2024-02-04T13:14:16.017Z,3.90
2024-02-04T13:16:43.064Z,3.60
2024-02-04T13:19:10.399Z,4.50
2024-02-04T13:21:37.552Z,3.50
2024-02-04T13:24:05.413Z,3.30
2024-02-04T13:26:32.548Z,3.80
2024-02-04T13:28:59.639Z,3.20
2024-02-04T13:31:28.634Z,1.80
2024-02-04T13:33:56.790Z,1.20
2024-02-04T13:36:24.073Z,1.00
2024-02-04T13:38:51.295Z,1.40
2024-02-04T13:41:20.141Z,1.40
2024-02-04T13:43:47.830Z,1.40
2024-02-04T13:46:14.962Z,2.00
2024-02-04T13:48:42.179Z,1.70
2024-02-04T13:51:09.370Z,2.00
2024-02-04T13:53:39.320Z,1.50
2024-02-04T13:56:06.491Z,2.10
2024-02-04T13:58:33.833Z,1.50
2024-02-04T14:01:01.346Z,2.20
2024-02-04T14:03:28.934Z,2.20
2024-02-04T14:05:56.388Z,2.10
2024-02-04T14:08:23.613Z,1.40
2024-02-04T14:10:50.695Z,2.00
2024-02-04T14:13:18.093Z,1.60
2024-02-04T14:15:45.351Z,2.50
2024-02-04T14:18:12.737Z,2.30
2024-02-04T14:20:40.092Z,2.40
2024-02-04T14:23:07.298Z,2.90
2024-02-04T14:25:34.456Z,3.40
2024-02-04T14:28:01.685Z,3.20
2024-02-04T14:30:28.833Z,3.10
2024-02-04T14:32:56.393Z,4.20
2024-02-04T14:35:23.498Z,5.80
2024-02-04T14:37:50.719Z,6.90
2024-02-04T14:40:18.058Z,8.80
2024-02-04T14:42:47.684Z,12.10
2024-02-04T14:45:14.936Z,10.70
2024-02-04T14:47:42.059Z,13.10
2024-02-04T14:50:09.939Z,14.70
2024-02-04T14:52:37.049Z,12.50
2024-02-04T14:55:04.339Z,12.30
2024-02-04T14:57:31.794Z,13.00
2024-02-04T14:59:59.199Z,15.30
2024-02-04T15:02:26.513Z,14.20
2024-02-04T15:04:54.469Z,13.80
2024-02-04T15:07:21.623Z,14.10
2024-02-04T15:09:51.012Z,12.80
2024-02-04T15:12:19.264Z,10.60
2024-02-04T15:14:46.412Z,9.50
2024-02-04T15:17:13.578Z,8.70
2024-02-04T15:19:40.729Z,7.70
2024-02-04T15:22:07.964Z,7.70
2024-02-04T15:24:35.076Z,7.80
2024-02-04T15:27:05.505Z,8.70
2024-02-04T15:29:36.584Z,11.60
2024-02-04T15:32:03.796Z,13.90
2024-02-04T15:34:32.894Z,16.50
2024-02-04T15:37:01.274Z,19.10
2024-02-04T15:39:28.508Z,22.00
2024-02-04T15:43:35.473Z,21.40
2024-02-04T15:46:04.984Z,21.80
2024-02-04T15:48:32.751Z,20.30
2024-02-04T15:51:00.593Z,20.50
2024-02-04T15:53:28.473Z,22.80
2024-02-04T15:55:56.301Z,23.30
2024-02-04T15:58:23.987Z,23.90
2024-02-04T16:00:51.947Z,24.60
2024-02-04T16:03:19.747Z,22.30
2024-02-04T16:05:47.682Z,21.80
2024-02-04T16:08:16.312Z,16.80
2024-02-04T16:10:44.075Z,14.70
2024-02-04T16:13:11.891Z,15.00
2024-02-04T16:15:44.681Z,12.40
2024-02-04T16:18:12.701Z,12.40
2024-02-04T16:20:41.638Z,14.90
2024-02-04T16:23:09.889Z,16.50
2024-02-04T16:25:38.309Z,17.20
2024-02-04T16:28:06.555Z,15.30
2024-02-04T16:30:34.917Z,17.50
2024-02-04T16:33:03.511Z,18.50
2024-02-04T16:35:31.146Z,17.00
2024-02-04T16:37:59.669Z,19.90
2024-02-04T16:40:27.423Z,18.80
2024-02-04T16:42:55.153Z,16.30
2024-02-04T16:45:22.753Z,22.70
2024-02-04T16:47:50.434Z,16.50
2024-02-04T16:50:19.403Z,17.90
2024-02-04T16:52:47.198Z,18.10
2024-02-04T16:55:15.305Z,16.40
2024-02-04T16:57:45.923Z,16.30
2024-02-04T17:00:16.774Z,15.10
2024-02-04T17:02:45.025Z,13.10
2024-02-04T17:05:13.400Z,12.60
2024-02-04T17:07:42.352Z,12.60
2024-02-04T17:10:10.925Z,12.40
2024-02-04T17:12:40.917Z,12.10
2024-02-04T17:15:08.890Z,12.00
2024-02-04T17:17:36.733Z,12.10
2024-02-04T17:20:17.213Z,12.80
2024-02-04T17:22:45.306Z,10.70
2024-02-04T17:25:19.339Z,9.60
2024-02-04T17:27:48.650Z,8.60
2024-02-04T17:30:17.484Z,9.20
2024-02-04T17:32:46.719Z,10.10
2024-02-04T17:35:15.598Z,10.50
2024-02-04T17:37:45.315Z,10.70
2024-02-04T17:40:13.047Z,11.80
2024-02-04T17:42:41.416Z,11.30
2024-02-04T17:45:10.134Z,12.10
2024-02-04T17:47:38.469Z,10.30
2024-02-04T17:50:07.235Z,11.20
2024-02-04T17:52:36.116Z,11.00
2024-02-04T17:55:03.994Z,11.00
2024-02-04T17:57:33.586Z,10.90
2024-02-04T18:00:02.527Z,10.90
2024-02-04T18:02:42.114Z,10.80
2024-02-04T18:05:15.322Z,9.80
2024-02-04T18:07:44.238Z,9.40
2024-02-04T18:10:12.324Z,9.60
2024-02-04T18:12:41.119Z,10.80
2024-02-04T18:15:09.997Z,10.20
2024-02-04T18:17:37.805Z,12.00
2024-02-04T18:20:09.624Z,12.50
2024-02-04T18:22:38.189Z,11.50
2024-02-04T18:25:13.035Z,13.70
2024-02-04T18:27:42.444Z,13.20
2024-02-04T18:30:12.704Z,15.20
2024-02-04T18:32:41.575Z,14.80
2024-02-04T18:35:10.049Z,13.90
2024-02-04T18:37:37.877Z,13.70
2024-02-04T18:40:08.477Z,12.10
2024-02-04T18:42:36.833Z,12.20
2024-02-04T18:45:05.849Z,11.20
2024-02-04T18:47:33.659Z,10.70
2024-02-04T18:50:03.450Z,10.10
2024-02-04T18:52:31.168Z,9.90
2024-02-04T18:54:59.033Z,11.20
2024-02-04T18:57:27.450Z,10.80
2024-02-04T18:59:55.049Z,10.80
2024-02-04T19:02:22.632Z,9.80
2024-02-04T19:04:51.504Z,8.80
2024-02-04T19:07:20.370Z,7.00
2024-02-04T19:09:49.013Z,8.40
2024-02-04T19:12:17.368Z,7.40
2024-02-04T19:14:45.934Z,8.60
2024-02-04T19:17:14.248Z,8.90
2024-02-04T19:19:44.156Z,9.20
2024-02-04T19:22:12.143Z,8.30
2024-02-04T19:24:40.888Z,8.30
2024-02-04T19:27:08.612Z,8.40
2024-02-04T19:29:36.272Z,8.20
2024-02-04T19:32:04.570Z,8.30
2024-02-04T19:34:32.546Z,8.40
2024-02-04T19:37:00.988Z,7.90
2024-02-04T19:39:29.274Z,7.90
2024-02-04T19:41:58.086Z,7.70
2024-02-04T19:44:26.065Z,8.50
2024-02-04T19:46:53.641Z,7.80
2024-02-04T19:49:21.413Z,7.60
2024-02-04T19:51:50.243Z,7.50
2024-02-04T19:54:19.714Z,8.60
2024-02-04T19:56:47.370Z,7.70
2024-02-04T19:59:15.116Z,7.90
2024-02-04T20:01:42.870Z,8.20
2024-02-04T20:04:10.737Z,9.30
2024-02-04T20:06:38.660Z,7.70
2024-02-04T20:09:07.147Z,9.10
2024-02-04T20:11:35.201Z,9.10
2024-02-04T20:14:05.247Z,8.30
2024-02-04T20:16:33.671Z,9.00
2024-02-04T20:19:06.133Z,8.40
2024-02-04T20:24:03.406Z,7.40
2024-02-04T20:26:31.182Z,8.70
2024-02-04T20:28:58.913Z,7.20
2024-02-04T20:31:26.707Z,7.60
2024-02-04T20:33:56.655Z,7.30
2024-02-04T20:36:24.402Z,7.10
2024-02-04T20:38:52.142Z,7.50
2024-02-04T20:41:19.906Z,7.90
2024-02-04T20:43:48.097Z,7.30
2024-02-04T20:46:16.560Z,7.70
2024-02-04T20:48:44.519Z,7.10
2024-02-04T20:51:12.735Z,8.30
2024-02-04T20:53:40.537Z,7.40
2024-02-04T20:56:08.250Z,7.90
2024-02-04T20:58:35.875Z,7.80
2024-02-04T21:01:03.793Z,6.90
2024-02-04T21:03:31.509Z,7.10
2024-02-04T21:05:59.258Z,5.90
2024-02-04T21:08:26.889Z,6.20
2024-02-04T21:10:54.622Z,5.40
2024-02-04T21:13:22.495Z,6.40
2024-02-04T21:15:50.802Z,6.20
2024-02-04T21:18:18.554Z,6.40
2024-02-04T21:20:46.381Z,7.30
2024-02-04T21:23:16.893Z,7.00
2024-02-04T21:25:44.510Z,7.10
2024-02-04T21:28:12.613Z,6.40
2024-02-04T21:30:40.620Z,6.70
2024-02-04T21:33:09.696Z,6.50
2024-02-04T21:35:37.507Z,6.20
2024-02-04T21:38:05.299Z,5.90
2024-02-04T21:40:33.004Z,5.70
2024-02-04T21:43:00.707Z,5.80
2024-02-04T21:45:28.392Z,5.80
2024-02-04T21:47:56.009Z,5.50
2024-02-04T21:50:24.391Z,5.80
2024-02-04T21:52:52.084Z,5.80
2024-02-04T21:55:19.843Z,5.60
2024-02-04T21:57:47.701Z,6.10
2024-02-04T22:00:15.680Z,5.40
2024-02-04T22:02:43.461Z,6.00
2024-02-04T22:05:11.149Z,5.30
2024-02-04T22:07:38.970Z,5.70
2024-02-04T22:10:10.122Z,6.50
2024-02-04T22:12:38.216Z,6.60
2024-02-04T22:15:09.314Z,7.00
2024-02-04T22:17:37.199Z,7.60
2024-02-04T22:20:05.926Z,7.20
2024-02-04T22:22:33.845Z,7.30
2024-02-04T22:25:01.487Z,7.00
2024-02-04T22:27:29.234Z,7.70
2024-02-04T22:29:56.989Z,7.80
2024-02-04T22:32:25.319Z,7.00
2024-02-04T22:34:53.792Z,6.20
2024-02-04T22:37:22.429Z,5.40
2024-02-04T22:39:50.106Z,5.10
2024-02-04T22:42:17.842Z,5.30
2024-02-04T22:44:45.470Z,5.60
2024-02-04T22:47:14.262Z,5.50
2024-02-04T22:49:42.117Z,6.40
2024-02-04T22:52:10.600Z,5.30
2024-02-04T22:54:38.809Z,6.40
2024-02-04T22:57:08.349Z,5.60
2024-02-04T22:59:36.012Z,5.40
2024-02-04T23:02:04.717Z,5.80
2024-02-04T23:04:36.992Z,5.30
2024-02-04T23:07:05.052Z,5.20
2024-02-04T23:09:32.716Z,4.60
2024-02-04T23:12:00.416Z,5.50
2024-02-04T23:14:28.623Z,3.90
2024-02-04T23:16:58.048Z,4.60
2024-02-04T23:19:25.961Z,4.40
2024-02-04T23:21:53.795Z,5.20
2024-02-04T23:24:21.835Z,4.50
2024-02-04T23:26:50.262Z,4.50
2024-02-04T23:29:18.444Z,4.40
2024-02-04T23:31:48.033Z,5.20
2024-02-04T23:34:17.907Z,5.10
2024-02-04T23:36:45.695Z,6.30
2024-02-04T23:39:19.844Z,5.60
2024-02-04T23:44:16.205Z,4.80
2024-02-04T23:46:43.839Z,4.30
2024-02-04T23:49:13.599Z,4.40
2024-02-04T23:51:41.334Z,4.20
2024-02-04T23:54:09.064Z,5.00
2024-02-04T23:56:36.674Z,4.80
2024-02-04T23:59:04.846Z,4.60
